createdAt,value
2023-05-06T00:02:29.613Z,17.57
2023-05-06T00:05:03.507Z,17.53
2023-05-06T00:07:37.125Z,17.52
2023-05-06T00:10:17.186Z,17.53
2023-05-06T00:12:48.484Z,17.27
2023-05-06T00:15:17.811Z,17.38
2023-05-06T00:17:47.048Z,17.36
2023-05-06T00:20:18.110Z,17.36
2023-05-06T00:22:52.746Z,17.53
2023-05-06T00:25:23.855Z,17.57
2023-05-06T00:27:54.636Z,17.49
2023-05-06T00:30:26.408Z,17.24
2023-05-06T00:33:01.524Z,17.42
2023-05-06T00:35:41.937Z,17.52
2023-05-06T00:38:15.341Z,17.43
2023-05-06T00:40:46.664Z,17.44
2023-05-06T00:43:17.646Z,17.42
2023-05-06T00:46:01.024Z,17.45
2023-05-06T00:48:32.676Z,16.95
2023-05-06T00:51:04.400Z,17.20
2023-05-06T00:53:34.620Z,17.16
2023-05-06T00:56:04.812Z,17.42
2023-05-06T00:58:40.501Z,17.22
2023-05-06T01:01:10.564Z,17.08
2023-05-06T01:03:44.873Z,17.12
2023-05-06T01:06:20.723Z,17.25
2023-05-06T01:08:59.852Z,17.13
2023-05-06T01:11:38.667Z,17.38
2023-05-06T01:14:24.167Z,17.40
2023-05-06T01:16:57.386Z,17.20
2023-05-06T01:19:38.928Z,17.35
2023-05-06T01:22:19.012Z,17.54
2023-05-06T01:24:50.805Z,17.48
2023-05-06T01:27:31.335Z,17.34
2023-05-06T01:30:02.406Z,17.59
2023-05-06T01:32:42.335Z,17.48
2023-05-06T01:35:21.803Z,17.57
2023-05-06T01:37:57.379Z,17.69
2023-05-06T01:40:32.800Z,17.70
2023-05-06T01:43:03.573Z,17.74
2023-05-06T01:45:35.150Z,17.74
2023-05-06T01:48:09.000Z,17.67
2023-05-06T01:50:46.928Z,17.73
2023-05-06T01:53:17.294Z,17.71
2023-05-06T01:56:02.829Z,17.79
2023-05-06T01:58:34.987Z,17.61
2023-05-06T02:01:06.595Z,17.86
2023-05-06T02:03:37.682Z,17.94
2023-05-06T02:06:06.097Z,17.82
2023-05-06T02:08:40.703Z,17.86
2023-05-06T02:11:19.028Z,17.60
2023-05-06T02:14:05.226Z,17.65
2023-05-06T02:16:36.588Z,17.51
2023-05-06T02:19:07.815Z,17.70
2023-05-06T02:21:37.935Z,17.75
2023-05-06T02:24:24.583Z,18.00
2023-05-06T02:26:57.125Z,17.83
2023-05-06T02:29:34.135Z,17.83
2023-05-06T02:32:05.348Z,17.68
2023-05-06T02:34:35.630Z,17.62
2023-05-06T02:37:05.815Z,17.66
2023-05-06T02:39:35.418Z,17.81
2023-05-06T02:42:07.275Z,17.68
2023-05-06T02:44:42.449Z,17.66
2023-05-06T02:47:11.108Z,17.57
2023-05-06T02:49:42.205Z,17.68
2023-05-06T02:52:13.272Z,17.67
2023-05-06T02:54:50.041Z,17.75
2023-05-06T02:57:26.540Z,17.73
2023-05-06T02:59:56.610Z,17.68
2023-05-06T03:02:28.304Z,17.80
2023-05-06T03:04:57.933Z,17.73
2023-05-06T03:07:28.177Z,17.88
2023-05-06T03:09:56.774Z,17.80
2023-05-06T03:12:29.085Z,17.89
2023-05-06T03:14:59.263Z,17.98
2023-05-06T03:17:28.216Z,17.80
2023-05-06T03:20:02.988Z,18.10
2023-05-06T03:22:33.968Z,17.99
2023-05-06T03:25:05.448Z,17.76
2023-05-06T03:27:57.641Z,17.89
2023-05-06T03:30:27.024Z,17.77
2023-05-06T03:32:59.065Z,17.83
2023-05-06T03:35:34.161Z,17.84
2023-05-06T03:38:05.482Z,17.80
2023-05-06T03:40:42.834Z,17.80
2023-05-06T03:43:16.328Z,17.73
2023-05-06T03:45:50.612Z,17.76
2023-05-06T03:48:21.739Z,17.67
2023-05-06T03:50:52.074Z,17.88
2023-05-06T03:53:23.146Z,17.81
2023-05-06T03:56:01.318Z,17.97
2023-05-06T03:58:36.678Z,17.73
2023-05-06T04:01:07.776Z,17.87
2023-05-06T04:03:38.436Z,17.65
2023-05-06T04:06:09.713Z,17.84
2023-05-06T04:08:38.290Z,17.83
2023-05-06T04:11:22.414Z,17.67
2023-05-06T04:14:05.547Z,17.69
2023-05-06T04:16:35.295Z,17.58
2023-05-06T04:19:08.380Z,17.60
2023-05-06T04:21:39.888Z,17.60
2023-05-06T04:24:19.490Z,17.83
2023-05-06T04:26:49.726Z,17.70
2023-05-06T04:29:25.661Z,17.80
2023-05-06T04:32:11.759Z,17.60
2023-05-06T04:34:42.803Z,17.62
2023-05-06T04:37:17.731Z,17.67
2023-05-06T04:39:50.296Z,17.53
2023-05-06T04:42:21.991Z,17.73
2023-05-06T04:45:09.812Z,17.70
2023-05-06T04:47:42.453Z,17.66
2023-05-06T04:50:13.034Z,17.63
2023-05-06T04:52:44.670Z,17.78
2023-05-06T04:55:15.531Z,17.86
2023-05-06T04:57:52.807Z,17.73
2023-05-06T05:00:31.076Z,17.75
2023-05-06T05:03:10.055Z,17.82
2023-05-06T05:05:39.795Z,17.79
2023-05-06T05:08:25.178Z,17.58
2023-05-06T05:10:53.755Z,17.48
2023-05-06T05:13:26.528Z,17.44
2023-05-06T05:16:00.972Z,17.70
2023-05-06T05:18:35.785Z,17.51
2023-05-06T05:21:12.185Z,17.59
2023-05-06T05:23:42.729Z,17.63
2023-05-06T05:26:16.393Z,17.57
2023-05-06T05:28:49.841Z,17.61
2023-05-06T05:31:34.882Z,17.58
2023-05-06T05:34:10.485Z,17.68
2023-05-06T05:36:46.957Z,17.79
2023-05-06T05:39:17.743Z,17.76
2023-05-06T05:41:57.570Z,17.74
2023-05-06T05:44:39.843Z,17.60
2023-05-06T05:47:25.891Z,17.58
2023-05-06T05:49:54.586Z,17.58
2023-05-06T05:52:24.889Z,17.66
2023-05-06T05:54:53.478Z,17.68
2023-05-06T05:57:24.561Z,17.67
2023-05-06T05:59:55.930Z,17.58
2023-05-06T06:02:35.606Z,17.44
2023-05-06T06:05:12.901Z,17.50
2023-05-06T06:07:43.551Z,17.75
2023-05-06T06:10:16.825Z,17.77
2023-05-06T06:12:52.106Z,17.82
2023-05-06T06:15:26.979Z,17.80
2023-05-06T06:17:59.919Z,17.82
2023-05-06T06:20:46.315Z,17.90
2023-05-06T06:23:16.782Z,18.13
2023-05-06T06:25:48.625Z,18.24
2023-05-06T06:28:18.994Z,18.23
2023-05-06T06:30:51.090Z,18.18
2023-05-06T06:33:23.683Z,18.16
2023-05-06T06:35:55.878Z,18.39
2023-05-06T06:38:29.419Z,18.36
2023-05-06T06:40:57.673Z,18.37
2023-05-06T06:43:29.427Z,18.67
2023-05-06T06:46:02.233Z,18.69
2023-05-06T06:48:34.341Z,18.72
2023-05-06T06:51:03.747Z,18.83
2023-05-06T06:53:35.634Z,19.01
2023-05-06T06:56:04.648Z,18.88
2023-05-06T06:58:34.655Z,19.00
2023-05-06T07:01:05.119Z,18.93
2023-05-06T07:03:39.535Z,18.92
2023-05-06T07:06:07.672Z,18.95
2023-05-06T07:08:36.340Z,19.10
2023-05-06T07:11:08.300Z,19.15
2023-05-06T07:13:39.104Z,19.02
2023-05-06T07:16:07.423Z,19.17
2023-05-06T07:18:36.884Z,19.32
2023-05-06T07:21:06.407Z,19.49
2023-05-06T07:23:36.951Z,19.37
2023-05-06T07:26:07.546Z,19.27
2023-05-06T07:28:38.246Z,19.40
2023-05-06T07:31:20.981Z,19.36
2023-05-06T07:33:53.271Z,19.27
2023-05-06T07:36:22.544Z,19.48
2023-05-06T07:38:53.046Z,19.64
2023-05-06T07:41:26.592Z,19.59
2023-05-06T07:44:05.996Z,19.77
2023-05-06T07:46:35.826Z,19.72
2023-05-06T07:49:11.968Z,19.76
2023-05-06T07:51:43.126Z,19.79
2023-05-06T07:54:17.640Z,19.97
2023-05-06T07:56:48.371Z,19.88
2023-05-06T07:59:26.328Z,20.14
2023-05-06T08:01:54.549Z,20.15
2023-05-06T08:04:25.068Z,20.26
2023-05-06T08:06:54.761Z,20.30
2023-05-06T08:09:29.021Z,20.46
2023-05-06T08:12:00.876Z,20.28
2023-05-06T08:14:29.720Z,20.33
2023-05-06T08:16:59.969Z,20.41
2023-05-06T08:19:34.544Z,20.59
2023-05-06T08:22:05.272Z,20.31
2023-05-06T08:24:35.998Z,20.41
2023-05-06T08:27:07.758Z,20.42
2023-05-06T08:29:36.704Z,20.43
2023-05-06T08:32:08.445Z,20.44
2023-05-06T08:34:39.032Z,20.33
2023-05-06T08:37:11.484Z,20.52
2023-05-06T08:39:43.552Z,20.42
2023-05-06T08:42:14.680Z,20.48
2023-05-06T08:44:44.277Z,20.46
2023-05-06T08:47:14.020Z,20.62
2023-05-06T08:49:49.295Z,20.60
2023-05-06T08:52:28.050Z,20.37
2023-05-06T08:55:05.233Z,20.21
2023-05-06T08:57:36.211Z,20.33
2023-05-06T09:00:11.992Z,20.37
2023-05-06T09:02:43.522Z,20.50
2023-05-06T09:05:16.318Z,20.30
2023-05-06T09:07:47.740Z,20.33
2023-05-06T09:10:19.349Z,20.43
2023-05-06T09:12:55.700Z,20.64
2023-05-06T09:15:42.920Z,20.55
2023-05-06T09:18:20.057Z,20.66
2023-05-06T09:20:58.802Z,20.79
2023-05-06T09:23:32.040Z,20.86
2023-05-06T09:26:00.186Z,21.01
2023-05-06T09:28:36.685Z,21.24
2023-05-06T09:31:06.113Z,21.56
2023-05-06T09:33:37.399Z,21.25
2023-05-06T09:36:13.489Z,21.34
2023-05-06T09:38:42.444Z,21.17
2023-05-06T09:41:11.259Z,21.41
2023-05-06T09:43:42.051Z,21.18
2023-05-06T09:46:12.743Z,21.40
2023-05-06T09:48:50.887Z,21.41
2023-05-06T09:51:26.902Z,21.38
2023-05-06T09:53:57.011Z,21.70
2023-05-06T09:56:25.912Z,21.48
2023-05-06T09:58:56.489Z,21.28
2023-05-06T10:01:35.946Z,21.25
2023-05-06T10:04:09.506Z,21.34
2023-05-06T10:06:47.309Z,21.32
2023-05-06T10:09:18.308Z,21.69
2023-05-06T10:11:56.050Z,21.42
2023-05-06T10:14:26.408Z,21.61
2023-05-06T10:16:57.991Z,21.60
2023-05-06T10:19:31.500Z,21.38
2023-05-06T10:22:11.158Z,22.12
2023-05-06T10:24:55.738Z,21.98
2023-05-06T10:27:36.804Z,21.85
2023-05-06T10:30:10.167Z,22.16
2023-05-06T10:32:45.711Z,22.37
2023-05-06T10:35:23.035Z,22.18
2023-05-06T10:37:59.384Z,22.28
2023-05-06T10:40:33.202Z,22.08
2023-05-06T10:43:29.309Z,22.21
2023-05-06T10:46:12.618Z,22.28
2023-05-06T10:49:09.258Z,22.79
2023-05-06T10:51:43.344Z,22.84
2023-05-06T10:54:24.111Z,22.75
2023-05-06T10:57:11.783Z,22.59
2023-05-06T10:59:47.821Z,23.05
2023-05-06T11:02:29.395Z,23.23
2023-05-06T11:05:02.297Z,23.07
2023-05-06T11:07:34.249Z,22.90
2023-05-06T11:10:08.197Z,22.54
2023-05-06T11:12:56.840Z,22.51
2023-05-06T11:15:43.773Z,22.51
2023-05-06T11:18:46.722Z,22.69
2023-05-06T11:21:39.889Z,22.58
2023-05-06T11:24:12.417Z,22.57
2023-05-06T11:26:48.493Z,22.80
2023-05-06T11:29:18.985Z,22.99
2023-05-06T11:31:55.876Z,22.77
2023-05-06T11:34:27.601Z,22.70
2023-05-06T11:37:15.385Z,22.64
2023-05-06T11:39:52.114Z,22.69
2023-05-06T11:42:32.563Z,22.70
2023-05-06T11:45:05.367Z,22.84
2023-05-06T11:47:34.289Z,22.88
2023-05-06T11:50:15.107Z,22.76
2023-05-06T11:52:48.070Z,22.52
2023-05-06T11:55:19.565Z,22.58
2023-05-06T11:57:49.212Z,23.13
2023-05-06T12:00:23.531Z,23.09
2023-05-06T12:02:59.591Z,23.06
2023-05-06T12:05:33.563Z,23.93
2023-05-06T12:08:02.220Z,23.80
2023-05-06T12:10:32.020Z,24.18
2023-05-06T12:13:17.970Z,24.40
2023-05-06T12:15:47.933Z,23.05
2023-05-06T12:18:19.201Z,22.57
2023-05-06T12:20:51.077Z,22.71
2023-05-06T12:23:22.108Z,22.53
2023-05-06T12:26:04.922Z,22.40
2023-05-06T12:28:43.106Z,22.40
2023-05-06T12:31:21.419Z,22.01
2023-05-06T12:33:56.097Z,21.69
2023-05-06T12:36:28.096Z,21.33
2023-05-06T12:39:07.997Z,21.29
2023-05-06T12:41:42.292Z,21.60
2023-05-06T12:44:36.397Z,21.19
2023-05-06T12:47:14.620Z,21.69
2023-05-06T12:49:48.822Z,22.36
2023-05-06T12:52:28.795Z,22.56
2023-05-06T12:54:57.663Z,22.34
2023-05-06T12:57:36.271Z,22.71
2023-05-06T13:00:10.876Z,22.74
2023-05-06T13:02:49.984Z,22.80
2023-05-06T13:05:34.377Z,22.71
2023-05-06T13:08:04.735Z,22.68
2023-05-06T13:10:35.195Z,23.15
2023-05-06T13:13:05.668Z,23.91
2023-05-06T13:15:39.696Z,24.85
2023-05-06T13:18:15.161Z,25.75
2023-05-06T13:20:48.530Z,26.04
2023-05-06T13:23:20.129Z,26.25
2023-05-06T13:26:03.578Z,25.73
2023-05-06T13:28:39.346Z,25.05
2023-05-06T13:31:12.109Z,24.33
2023-05-06T13:33:45.164Z,23.82
2023-05-06T13:36:14.952Z,23.20
2023-05-06T13:38:55.650Z,23.01
2023-05-06T13:41:25.791Z,22.95
2023-05-06T13:43:58.726Z,23.73
2023-05-06T13:46:36.199Z,24.89
2023-05-06T13:49:05.479Z,25.30
2023-05-06T13:51:36.753Z,25.10
2023-05-06T13:54:08.344Z,24.89
2023-05-06T13:56:38.088Z,24.38
2023-05-06T13:59:10.035Z,23.62
2023-05-06T14:01:49.604Z,23.38
2023-05-06T14:04:18.534Z,23.14
2023-05-06T14:06:49.734Z,22.87
2023-05-06T14:09:21.004Z,21.81
2023-05-06T14:11:50.632Z,21.65
2023-05-06T14:14:20.563Z,21.33
2023-05-06T14:16:53.465Z,20.80
2023-05-06T14:19:22.175Z,20.30
2023-05-06T14:21:52.261Z,20.24
2023-05-06T14:24:21.076Z,19.74
2023-05-06T14:26:58.038Z,19.96
2023-05-06T14:29:34.834Z,20.42
2023-05-06T14:32:19.760Z,21.55
2023-05-06T14:34:50.635Z,20.50
2023-05-06T14:37:24.541Z,19.93
2023-05-06T14:40:00.344Z,19.98
2023-05-06T14:42:28.934Z,19.79
2023-05-06T14:44:58.158Z,19.62
2023-05-06T14:47:29.751Z,19.60
2023-05-06T14:50:01.730Z,20.02
2023-05-06T14:52:29.732Z,20.34
2023-05-06T14:55:01.394Z,21.46
2023-05-06T14:57:30.784Z,22.11
2023-05-06T15:00:01.468Z,22.49
2023-05-06T15:02:33.456Z,22.98
2023-05-06T15:05:11.606Z,23.37
2023-05-06T15:07:44.143Z,23.19
2023-05-06T15:10:22.887Z,23.27
2023-05-06T15:12:56.295Z,23.93
2023-05-06T15:15:25.194Z,24.07
2023-05-06T15:17:59.806Z,23.88
2023-05-06T15:20:30.339Z,23.82
2023-05-06T15:23:01.293Z,23.11
2023-05-06T15:25:38.316Z,23.28
2023-05-06T15:28:10.220Z,23.73
2023-05-06T15:30:38.490Z,23.53
2023-05-06T15:33:09.903Z,23.36
2023-05-06T15:35:43.395Z,23.20
2023-05-06T15:38:15.370Z,23.17
2023-05-06T15:40:52.303Z,22.60
2023-05-06T15:43:24.051Z,22.49
2023-05-06T15:45:58.851Z,22.34
2023-05-06T15:48:43.566Z,22.42
2023-05-06T15:51:12.483Z,22.87
2023-05-06T15:53:44.012Z,22.68
2023-05-06T15:56:18.284Z,22.93
2023-05-06T15:58:47.580Z,22.52
2023-05-06T16:01:23.803Z,22.57
2023-05-06T16:04:13.874Z,22.93
2023-05-06T16:06:44.296Z,22.90
2023-05-06T16:09:17.209Z,22.64
2023-05-06T16:11:45.674Z,22.33
2023-05-06T16:14:18.869Z,22.28
2023-05-06T16:16:47.364Z,22.12
2023-05-06T16:19:32.841Z,21.83
2023-05-06T16:22:00.856Z,21.94
2023-05-06T16:24:31.983Z,21.63
2023-05-06T16:27:02.455Z,21.57
2023-05-06T16:29:30.565Z,21.65
2023-05-06T16:32:01.210Z,21.23
2023-05-06T16:34:30.630Z,21.12
2023-05-06T16:37:00.537Z,21.09
2023-05-06T16:39:31.847Z,21.11
2023-05-06T16:42:00.885Z,20.85
2023-05-06T16:44:30.299Z,20.75
2023-05-06T16:46:58.426Z,20.91
2023-05-06T16:49:30.229Z,20.71
2023-05-06T16:52:00.571Z,20.63
2023-05-06T16:54:33.004Z,20.66
2023-05-06T16:57:03.864Z,20.58
2023-05-06T16:59:38.447Z,20.66
2023-05-06T17:02:07.580Z,20.48
2023-05-06T17:04:44.942Z,20.54
2023-05-06T17:07:19.500Z,20.52
2023-05-06T17:09:51.353Z,20.37
2023-05-06T17:12:24.279Z,20.25
2023-05-06T17:14:52.528Z,20.11
2023-05-06T17:17:29.064Z,20.17
2023-05-06T17:19:59.452Z,20.03
2023-05-06T17:22:36.220Z,20.02
2023-05-06T17:25:08.051Z,20.17
2023-05-06T17:27:38.673Z,20.21
2023-05-06T17:30:15.002Z,20.29
2023-05-06T17:32:44.283Z,20.16
2023-05-06T17:35:14.567Z,20.03
2023-05-06T17:37:51.623Z,20.15
2023-05-06T17:40:28.728Z,20.01
2023-05-06T17:43:12.009Z,19.85
2023-05-06T17:45:49.866Z,19.92
2023-05-06T17:48:23.213Z,19.90
2023-05-06T17:50:53.212Z,19.71
2023-05-06T17:53:26.283Z,19.75
2023-05-06T17:55:58.568Z,19.67
2023-05-06T17:58:30.149Z,19.59
2023-05-06T18:01:08.008Z,19.68
2023-05-06T18:03:39.347Z,19.58
2023-05-06T18:06:11.114Z,19.13
2023-05-06T18:08:52.222Z,19.23
2023-05-06T18:11:26.581Z,19.00
2023-05-06T18:14:00.477Z,19.04
2023-05-06T18:16:31.562Z,19.02
2023-05-06T18:19:14.891Z,18.98
2023-05-06T18:21:51.161Z,19.01
2023-05-06T18:24:21.525Z,18.87
2023-05-06T18:26:55.845Z,18.98
2023-05-06T18:29:25.623Z,19.00
2023-05-06T18:31:55.434Z,18.94
2023-05-06T18:34:29.818Z,18.99
2023-05-06T18:37:02.329Z,18.69
2023-05-06T18:39:44.152Z,18.90
2023-05-06T18:42:17.627Z,18.88
2023-05-06T18:44:50.741Z,18.84
2023-05-06T18:47:28.650Z,18.86
2023-05-06T18:50:01.692Z,18.90
2023-05-06T18:52:33.579Z,18.94
2023-05-06T18:55:16.737Z,18.96
2023-05-06T18:58:00.975Z,19.06
2023-05-06T19:00:30.104Z,18.77
2023-05-06T19:02:59.391Z,18.76
2023-05-06T19:05:30.656Z,18.73
2023-05-06T19:08:09.998Z,18.56
2023-05-06T19:10:43.245Z,18.74
2023-05-06T19:13:20.697Z,18.75
2023-05-06T19:15:51.462Z,18.43
2023-05-06T19:18:23.495Z,18.16
2023-05-06T19:20:53.378Z,18.21
2023-05-06T19:23:27.402Z,18.19
2023-05-06T19:26:06.653Z,18.11
2023-05-06T19:28:41.674Z,18.00
2023-05-06T19:31:16.082Z,18.00
2023-05-06T19:33:47.415Z,17.73
2023-05-06T19:36:25.993Z,17.79
2023-05-06T19:39:02.335Z,17.84
2023-05-06T19:41:37.830Z,17.88
2023-05-06T19:44:09.729Z,17.81
2023-05-06T19:46:39.928Z,17.61
2023-05-06T19:49:10.814Z,17.63
2023-05-06T19:51:47.841Z,17.71
2023-05-06T19:54:19.166Z,17.71
2023-05-06T19:56:56.309Z,17.47
2023-05-06T19:59:26.200Z,17.23
2023-05-06T20:01:55.122Z,17.31
2023-05-06T20:04:24.437Z,17.11
2023-05-06T20:06:56.651Z,17.34
2023-05-06T20:09:30.205Z,17.12
2023-05-06T20:12:01.406Z,16.95
2023-05-06T20:14:32.166Z,16.87
2023-05-06T20:17:03.121Z,16.98
2023-05-06T20:19:32.519Z,17.00
2023-05-06T20:22:02.745Z,17.14
2023-05-06T20:24:35.425Z,17.05
2023-05-06T20:27:11.468Z,17.18
2023-05-06T20:29:43.566Z,17.26
2023-05-06T20:32:13.718Z,17.37
2023-05-06T20:34:43.564Z,17.36
2023-05-06T20:37:12.519Z,17.43
2023-05-06T20:39:42.648Z,17.39
2023-05-06T20:42:14.738Z,17.35
2023-05-06T20:44:51.950Z,17.29
2023-05-06T20:47:23.967Z,17.32
2023-05-06T20:49:52.694Z,17.13
2023-05-06T20:52:23.659Z,17.08
2023-05-06T20:54:55.544Z,17.03
2023-05-06T20:57:36.356Z,17.10
2023-05-06T21:00:08.137Z,17.12
2023-05-06T21:02:41.232Z,17.08
2023-05-06T21:05:12.556Z,17.12
2023-05-06T21:07:44.952Z,17.44
2023-05-06T21:10:15.967Z,17.53
2023-05-06T21:12:55.680Z,17.20
2023-05-06T21:15:24.883Z,17.10
2023-05-06T21:17:55.851Z,17.20
2023-05-06T21:20:24.211Z,17.25
2023-05-06T21:22:55.579Z,17.05
2023-05-06T21:25:24.960Z,17.19
2023-05-06T21:28:05.394Z,17.11
2023-05-06T21:30:35.546Z,17.16
2023-05-06T21:33:06.635Z,17.19
2023-05-06T21:35:36.839Z,17.00
2023-05-06T21:38:09.777Z,17.18
2023-05-06T21:40:42.067Z,17.10
2023-05-06T21:43:13.574Z,17.05
2023-05-06T21:45:48.713Z,16.90
2023-05-06T21:48:26.740Z,16.70
2023-05-06T21:51:02.911Z,16.91
2023-05-06T21:53:39.780Z,16.88
2023-05-06T21:56:19.867Z,16.80
2023-05-06T21:58:59.422Z,16.68
2023-05-06T22:01:32.765Z,16.62
2023-05-06T22:04:01.981Z,16.72
2023-05-06T22:06:30.270Z,16.86
2023-05-06T22:08:58.337Z,16.71
2023-05-06T22:11:27.703Z,16.93
2023-05-06T22:14:02.890Z,17.04
2023-05-06T22:16:31.906Z,16.79
2023-05-06T22:19:00.766Z,16.70
2023-05-06T22:21:30.411Z,16.76
2023-05-06T22:23:59.067Z,16.74
2023-05-06T22:26:32.428Z,16.78
2023-05-06T22:29:11.024Z,16.47
2023-05-06T22:31:47.523Z,16.61
2023-05-06T22:34:21.391Z,16.67
2023-05-06T22:36:51.653Z,16.66
2023-05-06T22:39:21.903Z,16.44
2023-05-06T22:41:51.334Z,16.61
2023-05-06T22:44:23.204Z,16.44
2023-05-06T22:46:53.177Z,16.53
2023-05-06T22:49:28.347Z,16.47
2023-05-06T22:52:09.141Z,16.38
2023-05-06T22:54:40.973Z,16.50
2023-05-06T22:57:10.943Z,16.23
2023-05-06T22:59:40.752Z,16.34
2023-05-06T23:02:08.994Z,16.27
2023-05-06T23:04:39.008Z,16.26
2023-05-06T23:07:11.852Z,16.40
2023-05-06T23:09:45.722Z,16.57
2023-05-06T23:12:19.244Z,16.65
2023-05-06T23:15:03.505Z,16.60
2023-05-06T23:17:33.854Z,16.43
2023-05-06T23:20:07.088Z,16.34
2023-05-06T23:22:37.982Z,16.34
2023-05-06T23:25:08.540Z,16.27
2023-05-06T23:27:42.529Z,16.33
2023-05-06T23:30:17.679Z,16.31
2023-05-06T23:32:48.018Z,16.24
2023-05-06T23:35:24.723Z,16.39
2023-05-06T23:37:55.954Z,16.34
2023-05-06T23:40:27.287Z,16.37
2023-05-06T23:42:57.413Z,16.23
2023-05-06T23:45:30.188Z,16.30
2023-05-06T23:48:00.891Z,16.21
2023-05-06T23:50:31.543Z,16.19
2023-05-06T23:53:04.077Z,16.29
2023-05-06T23:55:40.301Z,16.18
2023-05-06T23:58:10.887Z,16.18
